sensor_id;sensor_type;location;lat;lon;timestamp;P1;durP1;ratioP1;P2;durP2;ratioP2
23159;SDS011;11748;50.844;4.396;2023-04-03T00:02:16;8.00;;;6.47;;
23159;SDS011;11748;50.844;4.396;2023-04-03T00:04:42;8.82;;;6.50;;
23159;SDS011;11748;50.844;4.396;2023-04-03T00:07:08;8.70;;;6.20;;
23159;SDS011;11748;50.844;4.396;2023-04-03T00:09:34;8.07;;;6.20;;
23159;SDS011;11748;50.844;4.396;2023-04-03T00:11:59;8.30;;;6.75;;
23159;SDS011;11748;50.844;4.396;2023-04-03T00:14:25;9.27;;;5.53;;
23159;SDS011;11748;50.844;4.396;2023-04-03T00:16:52;10.48;;;6.32;;
23159;SDS011;11748;50.844;4.396;2023-04-03T00:19:18;11.55;;;6.60;;
23159;SDS011;11748;50.844;4.396;2023-04-03T00:21:44;9.85;;;6.80;;
23159;SDS011;11748;50.844;4.396;2023-04-03T00:24:10;9.18;;;6.80;;
23159;SDS011;11748;50.844;4.396;2023-04-03T00:26:36;12.07;;;6.72;;
23159;SDS011;11748;50.844;4.396;2023-04-03T00:29:02;8.32;;;6.35;;
23159;SDS011;11748;50.844;4.396;2023-04-03T00:31:28;7.85;;;6.40;;
23159;SDS011;11748;50.844;4.396;2023-04-03T00:33:53;9.27;;;5.90;;
23159;SDS011;11748;50.844;4.396;2023-04-03T00:36:19;10.55;;;6.05;;
23159;SDS011;11748;50.844;4.396;2023-04-03T00:38:45;9.15;;;6.13;;
23159;SDS011;11748;50.844;4.396;2023-04-03T00:41:11;8.23;;;5.70;;
23159;SDS011;11748;50.844;4.396;2023-04-03T00:43:37;8.48;;;6.55;;
23159;SDS011;11748;50.844;4.396;2023-04-03T00:46:03;9.38;;;6.45;;
23159;SDS011;11748;50.844;4.396;2023-04-03T00:48:30;9.50;;;6.45;;
23159;SDS011;11748;50.844;4.396;2023-04-03T00:51:02;11.18;;;6.03;;
23159;SDS011;11748;50.844;4.396;2023-04-03T00:53:32;10.35;;;5.97;;
23159;SDS011;11748;50.844;4.396;2023-04-03T00:56:02;9.25;;;6.45;;
23159;SDS011;11748;50.844;4.396;2023-04-03T00:58:35;6.75;;;5.72;;
23159;SDS011;11748;50.844;4.396;2023-04-03T01:01:05;9.20;;;5.82;;
23159;SDS011;11748;50.844;4.396;2023-04-03T01:03:35;9.90;;;6.75;;
23159;SDS011;11748;50.844;4.396;2023-04-03T01:06:01;8.40;;;6.00;;
23159;SDS011;11748;50.844;4.396;2023-04-03T01:08:27;8.93;;;6.03;;
23159;SDS011;11748;50.844;4.396;2023-04-03T01:10:53;10.68;;;6.68;;
23159;SDS011;11748;50.844;4.396;2023-04-03T01:13:21;8.88;;;6.32;;
23159;SDS011;11748;50.844;4.396;2023-04-03T01:15:50;9.80;;;6.60;;
23159;SDS011;11748;50.844;4.396;2023-04-03T01:18:16;8.52;;;6.03;;
23159;SDS011;11748;50.844;4.396;2023-04-03T01:23:44;11.68;;;6.20;;
23159;SDS011;11748;50.844;4.396;2023-04-03T01:26:19;11.95;;;6.55;;
23159;SDS011;11748;50.844;4.396;2023-04-03T01:28:45;10.85;;;6.55;;
23159;SDS011;11748;50.844;4.396;2023-04-03T01:33:51;10.90;;;6.05;;
23159;SDS011;11748;50.844;4.396;2023-04-03T01:36:27;8.80;;;6.38;;
23159;SDS011;11748;50.844;4.396;2023-04-03T01:38:54;10.57;;;6.65;;
23159;SDS011;11748;50.844;4.396;2023-04-03T01:41:21;8.20;;;6.25;;
23159;SDS011;11748;50.844;4.396;2023-04-03T01:43:48;8.05;;;6.88;;
23159;SDS011;11748;50.844;4.396;2023-04-03T01:46:14;9.70;;;6.35;;
23159;SDS011;11748;50.844;4.396;2023-04-03T01:48:41;10.95;;;6.68;;
23159;SDS011;11748;50.844;4.396;2023-04-03T01:51:07;10.70;;;6.88;;
23159;SDS011;11748;50.844;4.396;2023-04-03T01:53:33;12.18;;;7.07;;
23159;SDS011;11748;50.844;4.396;2023-04-03T01:55:59;9.18;;;6.55;;
23159;SDS011;11748;50.844;4.396;2023-04-03T01:58:24;8.32;;;6.32;;
23159;SDS011;11748;50.844;4.396;2023-04-03T02:00:50;10.52;;;6.25;;
23159;SDS011;11748;50.844;4.396;2023-04-03T02:03:16;10.45;;;6.82;;
23159;SDS011;11748;50.844;4.396;2023-04-03T02:05:42;9.15;;;6.70;;
23159;SDS011;11748;50.844;4.396;2023-04-03T02:08:08;11.52;;;5.97;;
23159;SDS011;11748;50.844;4.396;2023-04-03T02:10:34;8.10;;;6.38;;
23159;SDS011;11748;50.844;4.396;2023-04-03T02:12:59;9.35;;;6.47;;
23159;SDS011;11748;50.844;4.396;2023-04-03T02:15:25;11.77;;;6.63;;
23159;SDS011;11748;50.844;4.396;2023-04-03T02:17:51;7.95;;;6.22;;
23159;SDS011;11748;50.844;4.396;2023-04-03T02:20:17;8.45;;;6.00;;
23159;SDS011;11748;50.844;4.396;2023-04-03T02:22:43;8.85;;;6.05;;
23159;SDS011;11748;50.844;4.396;2023-04-03T02:25:09;11.57;;;6.60;;
23159;SDS011;11748;50.844;4.396;2023-04-03T02:27:35;8.55;;;6.65;;
23159;SDS011;11748;50.844;4.396;2023-04-03T02:30:01;9.73;;;6.32;;
23159;SDS011;11748;50.844;4.396;2023-04-03T02:32:28;11.30;;;7.07;;
23159;SDS011;11748;50.844;4.396;2023-04-03T02:34:54;9.35;;;6.40;;
23159;SDS011;11748;50.844;4.396;2023-04-03T02:37:20;7.88;;;6.22;;
23159;SDS011;11748;50.844;4.396;2023-04-03T02:39:46;9.88;;;6.50;;
23159;SDS011;11748;50.844;4.396;2023-04-03T02:42:11;7.70;;;6.35;;
23159;SDS011;11748;50.844;4.396;2023-04-03T02:44:37;8.18;;;6.55;;
23159;SDS011;11748;50.844;4.396;2023-04-03T02:47:03;10.48;;;6.72;;
23159;SDS011;11748;50.844;4.396;2023-04-03T02:49:30;10.45;;;6.80;;
23159;SDS011;11748;50.844;4.396;2023-04-03T02:51:56;9.13;;;6.90;;
23159;SDS011;11748;50.844;4.396;2023-04-03T02:54:21;8.75;;;6.32;;
23159;SDS011;11748;50.844;4.396;2023-04-03T02:56:48;9.00;;;6.55;;
23159;SDS011;11748;50.844;4.396;2023-04-03T02:59:14;7.68;;;6.35;;
23159;SDS011;11748;50.844;4.396;2023-04-03T03:01:40;7.90;;;6.30;;
23159;SDS011;11748;50.844;4.396;2023-04-03T03:04:06;11.00;;;6.80;;
23159;SDS011;11748;50.844;4.396;2023-04-03T03:06:31;9.18;;;6.20;;
23159;SDS011;11748;50.844;4.396;2023-04-03T03:08:57;8.75;;;6.78;;
23159;SDS011;11748;50.844;4.396;2023-04-03T03:11:23;10.15;;;6.30;;
23159;SDS011;11748;50.844;4.396;2023-04-03T03:13:50;9.68;;;6.50;;
23159;SDS011;11748;50.844;4.396;2023-04-03T03:16:15;7.85;;;6.45;;
23159;SDS011;11748;50.844;4.396;2023-04-03T03:18:41;11.43;;;6.60;;
23159;SDS011;11748;50.844;4.396;2023-04-03T03:21:08;9.25;;;6.78;;
23159;SDS011;11748;50.844;4.396;2023-04-03T03:23:35;10.43;;;6.10;;
23159;SDS011;11748;50.844;4.396;2023-04-03T03:26:02;8.38;;;6.22;;
23159;SDS011;11748;50.844;4.396;2023-04-03T03:28:29;8.18;;;6.00;;
23159;SDS011;11748;50.844;4.396;2023-04-03T03:30:56;11.32;;;6.72;;
23159;SDS011;11748;50.844;4.396;2023-04-03T03:33:22;10.77;;;6.63;;
23159;SDS011;11748;50.844;4.396;2023-04-03T03:35:48;8.57;;;6.38;;
23159;SDS011;11748;50.844;4.396;2023-04-03T03:38:14;11.02;;;7.13;;
23159;SDS011;11748;50.844;4.396;2023-04-03T03:40:39;8.05;;;6.70;;
23159;SDS011;11748;50.844;4.396;2023-04-03T03:43:05;9.77;;;7.43;;
23159;SDS011;11748;50.844;4.396;2023-04-03T03:45:31;9.73;;;7.15;;
23159;SDS011;11748;50.844;4.396;2023-04-03T03:47:57;7.93;;;7.10;;
23159;SDS011;11748;50.844;4.396;2023-04-03T03:50:22;9.75;;;6.72;;
23159;SDS011;11748;50.844;4.396;2023-04-03T03:52:48;10.45;;;6.88;;
23159;SDS011;11748;50.844;4.396;2023-04-03T03:55:14;10.48;;;7.25;;
23159;SDS011;11748;50.844;4.396;2023-04-03T03:57:40;10.73;;;7.35;;
23159;SDS011;11748;50.844;4.396;2023-04-03T04:00:06;11.77;;;7.13;;
23159;SDS011;11748;50.844;4.396;2023-04-03T04:02:33;9.73;;;7.53;;
23159;SDS011;11748;50.844;4.396;2023-04-03T04:04:59;8.70;;;7.03;;
23159;SDS011;11748;50.844;4.396;2023-04-03T04:07:25;10.95;;;7.50;;
23159;SDS011;11748;50.844;4.396;2023-04-03T04:09:53;9.70;;;7.45;;
23159;SDS011;11748;50.844;4.396;2023-04-03T04:12:19;9.07;;;7.07;;
23159;SDS011;11748;50.844;4.396;2023-04-03T04:14:45;7.50;;;6.47;;
23159;SDS011;11748;50.844;4.396;2023-04-03T04:17:12;9.95;;;7.43;;
23159;SDS011;11748;50.844;4.396;2023-04-03T04:19:38;12.50;;;7.85;;
23159;SDS011;11748;50.844;4.396;2023-04-03T04:22:03;9.65;;;7.47;;
23159;SDS011;11748;50.844;4.396;2023-04-03T04:24:29;12.15;;;7.82;;
23159;SDS011;11748;50.844;4.396;2023-04-03T04:26:55;10.68;;;7.32;;
23159;SDS011;11748;50.844;4.396;2023-04-03T04:29:21;10.10;;;7.65;;
23159;SDS011;11748;50.844;4.396;2023-04-03T04:31:46;11.38;;;7.90;;
23159;SDS011;11748;50.844;4.396;2023-04-03T04:34:12;12.05;;;8.52;;
23159;SDS011;11748;50.844;4.396;2023-04-03T04:36:38;10.13;;;8.02;;
23159;SDS011;11748;50.844;4.396;2023-04-03T04:39:04;11.75;;;8.20;;
23159;SDS011;11748;50.844;4.396;2023-04-03T04:41:30;10.30;;;8.45;;
23159;SDS011;11748;50.844;4.396;2023-04-03T04:43:56;10.68;;;8.18;;
23159;SDS011;11748;50.844;4.396;2023-04-03T04:46:22;12.82;;;8.45;;
23159;SDS011;11748;50.844;4.396;2023-04-03T04:48:48;11.20;;;8.85;;
23159;SDS011;11748;50.844;4.396;2023-04-03T04:51:14;14.25;;;9.02;;
23159;SDS011;11748;50.844;4.396;2023-04-03T04:53:40;13.77;;;8.90;;
23159;SDS011;11748;50.844;4.396;2023-04-03T04:56:06;10.73;;;8.95;;
23159;SDS011;11748;50.844;4.396;2023-04-03T04:58:32;10.60;;;8.82;;
23159;SDS011;11748;50.844;4.396;2023-04-03T05:01:05;11.57;;;8.60;;
23159;SDS011;11748;50.844;4.396;2023-04-03T05:03:32;13.20;;;9.57;;
23159;SDS011;11748;50.844;4.396;2023-04-03T05:05:58;12.10;;;9.15;;
23159;SDS011;11748;50.844;4.396;2023-04-03T05:08:24;12.18;;;9.50;;
23159;SDS011;11748;50.844;4.396;2023-04-03T05:10:50;12.77;;;9.30;;
23159;SDS011;11748;50.844;4.396;2023-04-03T05:13:16;14.50;;;9.23;;
23159;SDS011;11748;50.844;4.396;2023-04-03T05:15:42;13.27;;;9.75;;
23159;SDS011;11748;50.844;4.396;2023-04-03T05:18:08;13.73;;;9.35;;
23159;SDS011;11748;50.844;4.396;2023-04-03T05:20:34;14.18;;;9.77;;
23159;SDS011;11748;50.844;4.396;2023-04-03T05:23:00;11.52;;;9.57;;
23159;SDS011;11748;50.844;4.396;2023-04-03T05:25:26;13.52;;;9.70;;
23159;SDS011;11748;50.844;4.396;2023-04-03T05:27:52;13.02;;;9.85;;
23159;SDS011;11748;50.844;4.396;2023-04-03T05:30:18;14.95;;;10.23;;
23159;SDS011;11748;50.844;4.396;2023-04-03T05:32:44;14.48;;;10.32;;
23159;SDS011;11748;50.844;4.396;2023-04-03T05:35:10;16.33;;;10.02;;
23159;SDS011;11748;50.844;4.396;2023-04-03T05:37:36;11.60;;;10.13;;
23159;SDS011;11748;50.844;4.396;2023-04-03T05:40:03;14.32;;;9.65;;
23159;SDS011;11748;50.844;4.396;2023-04-03T05:42:29;11.80;;;10.32;;
23159;SDS011;11748;50.844;4.396;2023-04-03T05:44:55;13.75;;;10.75;;
23159;SDS011;11748;50.844;4.396;2023-04-03T05:47:21;14.98;;;10.23;;
23159;SDS011;11748;50.844;4.396;2023-04-03T05:49:46;13.80;;;10.70;;
23159;SDS011;11748;50.844;4.396;2023-04-03T05:54:54;13.10;;;10.48;;
23159;SDS011;11748;50.844;4.396;2023-04-03T05:57:21;11.82;;;9.57;;
23159;SDS011;11748;50.844;4.396;2023-04-03T05:59:47;15.20;;;9.88;;
23159;SDS011;11748;50.844;4.396;2023-04-03T06:02:15;15.45;;;10.93;;
23159;SDS011;11748;50.844;4.396;2023-04-03T06:04:43;14.10;;;10.77;;
23159;SDS011;11748;50.844;4.396;2023-04-03T06:07:13;16.83;;;10.07;;
23159;SDS011;11748;50.844;4.396;2023-04-03T06:09:40;12.95;;;10.80;;
23159;SDS011;11748;50.844;4.396;2023-04-03T06:12:06;13.20;;;10.38;;
23159;SDS011;11748;50.844;4.396;2023-04-03T06:14:33;13.48;;;10.45;;
23159;SDS011;11748;50.844;4.396;2023-04-03T06:16:59;16.00;;;10.90;;
23159;SDS011;11748;50.844;4.396;2023-04-03T06:19:26;12.10;;;10.40;;
23159;SDS011;11748;50.844;4.396;2023-04-03T06:21:52;15.07;;;10.80;;
23159;SDS011;11748;50.844;4.396;2023-04-03T06:24:18;13.27;;;10.18;;
23159;SDS011;11748;50.844;4.396;2023-04-03T06:26:46;12.20;;;10.10;;
23159;SDS011;11748;50.844;4.396;2023-04-03T06:29:12;13.30;;;10.02;;
23159;SDS011;11748;50.844;4.396;2023-04-03T06:31:38;14.88;;;10.07;;
23159;SDS011;11748;50.844;4.396;2023-04-03T06:34:04;12.45;;;9.98;;
23159;SDS011;11748;50.844;4.396;2023-04-03T06:36:32;15.13;;;10.60;;
23159;SDS011;11748;50.844;4.396;2023-04-03T06:38:58;15.18;;;10.23;;
23159;SDS011;11748;50.844;4.396;2023-04-03T06:41:23;13.50;;;9.82;;
23159;SDS011;11748;50.844;4.396;2023-04-03T06:43:51;13.52;;;9.23;;
23159;SDS011;11748;50.844;4.396;2023-04-03T06:46:18;13.35;;;9.63;;
23159;SDS011;11748;50.844;4.396;2023-04-03T06:48:46;13.32;;;9.82;;
23159;SDS011;11748;50.844;4.396;2023-04-03T06:51:20;15.50;;;9.25;;
23159;SDS011;11748;50.844;4.396;2023-04-03T06:53:48;14.65;;;8.90;;
23159;SDS011;11748;50.844;4.396;2023-04-03T06:56:15;12.38;;;9.02;;
23159;SDS011;11748;50.844;4.396;2023-04-03T06:58:41;14.18;;;9.45;;
23159;SDS011;11748;50.844;4.396;2023-04-03T07:01:08;12.75;;;9.48;;
23159;SDS011;11748;50.844;4.396;2023-04-03T07:03:36;12.52;;;9.23;;
23159;SDS011;11748;50.844;4.396;2023-04-03T07:06:02;11.45;;;9.10;;
23159;SDS011;11748;50.844;4.396;2023-04-03T07:08:28;12.55;;;10.07;;
23159;SDS011;11748;50.844;4.396;2023-04-03T07:10:54;15.65;;;10.52;;
23159;SDS011;11748;50.844;4.396;2023-04-03T07:13:20;13.50;;;10.43;;
23159;SDS011;11748;50.844;4.396;2023-04-03T07:15:46;15.02;;;9.98;;
23159;SDS011;11748;50.844;4.396;2023-04-03T07:18:11;13.80;;;9.90;;
23159;SDS011;11748;50.844;4.396;2023-04-03T07:20:38;13.20;;;9.80;;
23159;SDS011;11748;50.844;4.396;2023-04-03T07:23:04;13.48;;;9.63;;
23159;SDS011;11748;50.844;4.396;2023-04-03T07:25:29;11.95;;;9.70;;
23159;SDS011;11748;50.844;4.396;2023-04-03T07:27:57;12.73;;;9.85;;
23159;SDS011;11748;50.844;4.396;2023-04-03T07:30:23;14.98;;;9.40;;
23159;SDS011;11748;50.844;4.396;2023-04-03T07:32:48;10.45;;;9.45;;
23159;SDS011;11748;50.844;4.396;2023-04-03T07:35:14;15.90;;;10.02;;
23159;SDS011;11748;50.844;4.396;2023-04-03T07:37:41;12.32;;;9.88;;
23159;SDS011;11748;50.844;4.396;2023-04-03T07:40:07;10.65;;;9.25;;
23159;SDS011;11748;50.844;4.396;2023-04-03T07:42:34;13.77;;;9.25;;
23159;SDS011;11748;50.844;4.396;2023-04-03T07:45:00;12.45;;;9.65;;
23159;SDS011;11748;50.844;4.396;2023-04-03T07:47:26;15.77;;;10.95;;
23159;SDS011;11748;50.844;4.396;2023-04-03T07:49:52;13.27;;;9.90;;
23159;SDS011;11748;50.844;4.396;2023-04-03T07:52:18;10.77;;;8.60;;
23159;SDS011;11748;50.844;4.396;2023-04-03T07:54:44;15.45;;;9.20;;
23159;SDS011;11748;50.844;4.396;2023-04-03T07:57:09;12.85;;;9.70;;
23159;SDS011;11748;50.844;4.396;2023-04-03T07:59:35;25.77;;;12.52;;
23159;SDS011;11748;50.844;4.396;2023-04-03T08:02:01;16.75;;;12.25;;
23159;SDS011;11748;50.844;4.396;2023-04-03T08:04:29;11.32;;;9.07;;
23159;SDS011;11748;50.844;4.396;2023-04-03T08:06:56;11.10;;;8.35;;
23159;SDS011;11748;50.844;4.396;2023-04-03T08:09:22;10.35;;;8.40;;
23159;SDS011;11748;50.844;4.396;2023-04-03T08:11:47;13.38;;;9.50;;
23159;SDS011;11748;50.844;4.396;2023-04-03T08:14:13;11.52;;;8.38;;
23159;SDS011;11748;50.844;4.396;2023-04-03T08:16:44;18.55;;;12.00;;
23159;SDS011;11748;50.844;4.396;2023-04-03T08:19:11;17.17;;;9.93;;
23159;SDS011;11748;50.844;4.396;2023-04-03T08:21:39;17.55;;;10.48;;
23159;SDS011;11748;50.844;4.396;2023-04-03T08:24:06;11.77;;;8.82;;
23159;SDS011;11748;50.844;4.396;2023-04-03T08:26:33;14.02;;;8.52;;
23159;SDS011;11748;50.844;4.396;2023-04-03T08:28:59;17.48;;;11.02;;
23159;SDS011;11748;50.844;4.396;2023-04-03T08:31:24;11.52;;;8.10;;
23159;SDS011;11748;50.844;4.396;2023-04-03T08:33:50;10.23;;;8.07;;
23159;SDS011;11748;50.844;4.396;2023-04-03T08:36:23;14.20;;;8.95;;
23159;SDS011;11748;50.844;4.396;2023-04-03T08:38:51;11.75;;;7.57;;
23159;SDS011;11748;50.844;4.396;2023-04-03T08:49:53;7.03;;;6.33;;
23159;SDS011;11748;50.844;4.396;2023-04-03T08:52:37;8.48;;;5.70;;
23159;SDS011;11748;50.844;4.396;2023-04-03T08:55:13;7.40;;;5.68;;
23159;SDS011;11748;50.844;4.396;2023-04-03T08:58:00;12.63;;;7.18;;
23159;SDS011;11748;50.844;4.396;2023-04-03T09:03:29;7.32;;;5.72;;
23159;SDS011;11748;50.844;4.396;2023-04-03T09:14:33;10.05;;;5.15;;
23159;SDS011;11748;50.844;4.396;2023-04-03T09:17:09;11.20;;;4.75;;
23159;SDS011;11748;50.844;4.396;2023-04-03T09:19:43;6.20;;;4.38;;
23159;SDS011;11748;50.844;4.396;2023-04-03T09:22:27;6.50;;;4.30;;
23159;SDS011;11748;50.844;4.396;2023-04-03T09:27:28;5.60;;;3.85;;
23159;SDS011;11748;50.844;4.396;2023-04-03T09:29:55;4.47;;;3.60;;
23159;SDS011;11748;50.844;4.396;2023-04-03T09:32:29;8.45;;;3.45;;
23159;SDS011;11748;50.844;4.396;2023-04-03T09:35:02;6.47;;;3.63;;
23159;SDS011;11748;50.844;4.396;2023-04-03T09:38:31;4.95;;;3.05;;
23159;SDS011;11748;50.844;4.396;2023-04-03T09:40:41;5.38;;;3.38;;
23159;SDS011;11748;50.844;4.396;2023-04-03T09:43:25;6.22;;;3.28;;
23159;SDS011;11748;50.844;4.396;2023-04-03T09:45:53;5.13;;;2.85;;
23159;SDS011;11748;50.844;4.396;2023-04-03T09:48:25;4.47;;;2.92;;
23159;SDS011;11748;50.844;4.396;2023-04-03T09:50:54;5.15;;;2.75;;
23159;SDS011;11748;50.844;4.396;2023-04-03T09:55:59;4.63;;;2.83;;
23159;SDS011;11748;50.844;4.396;2023-04-03T10:00:56;4.40;;;2.67;;
23159;SDS011;11748;50.844;4.396;2023-04-03T10:03:30;5.60;;;2.78;;
23159;SDS011;11748;50.844;4.396;2023-04-03T10:05:59;9.02;;;2.50;;
23159;SDS011;11748;50.844;4.396;2023-04-03T10:08:28;5.60;;;2.53;;
23159;SDS011;11748;50.844;4.396;2023-04-03T10:11:05;4.30;;;3.10;;
23159;SDS011;11748;50.844;4.396;2023-04-03T10:13:31;3.72;;;2.50;;
23159;SDS011;11748;50.844;4.396;2023-04-03T10:16:06;6.25;;;3.10;;
23159;SDS011;11748;50.844;4.396;2023-04-03T10:18:41;5.40;;;2.10;;
23159;SDS011;11748;50.844;4.396;2023-04-03T10:21:35;5.97;;;2.47;;
23159;SDS011;11748;50.844;4.396;2023-04-03T10:32:08;4.82;;;2.35;;
23159;SDS011;11748;50.844;4.396;2023-04-03T10:34:41;6.93;;;2.35;;
23159;SDS011;11748;50.844;4.396;2023-04-03T10:43:14;6.43;;;2.33;;
23159;SDS011;11748;50.844;4.396;2023-04-03T10:48:43;6.03;;;2.67;;
23159;SDS011;11748;50.844;4.396;2023-04-03T10:54:46;4.35;;;2.03;;
23159;SDS011;11748;50.844;4.396;2023-04-03T10:57:23;4.25;;;1.88;;
23159;SDS011;11748;50.844;4.396;2023-04-03T10:59:53;3.50;;;1.80;;
23159;SDS011;11748;50.844;4.396;2023-04-03T11:02:33;4.38;;;1.67;;
23159;SDS011;11748;50.844;4.396;2023-04-03T11:10:51;4.13;;;1.73;;
23159;SDS011;11748;50.844;4.396;2023-04-03T11:16:02;3.83;;;1.65;;
23159;SDS011;11748;50.844;4.396;2023-04-03T11:18:42;2.67;;;1.52;;
23159;SDS011;11748;50.844;4.396;2023-04-03T11:23:47;3.75;;;1.80;;
23159;SDS011;11748;50.844;4.396;2023-04-03T11:26:18;5.53;;;1.75;;
23159;SDS011;11748;50.844;4.396;2023-04-03T11:28:52;6.50;;;2.00;;
23159;SDS011;11748;50.844;4.396;2023-04-03T11:36:32;3.85;;;1.88;;
23159;SDS011;11748;50.844;4.396;2023-04-03T11:41:50;4.07;;;1.70;;
23159;SDS011;11748;50.844;4.396;2023-04-03T11:44:35;4.82;;;1.63;;
23159;SDS011;11748;50.844;4.396;2023-04-03T11:47:03;3.58;;;2.08;;
23159;SDS011;11748;50.844;4.396;2023-04-03T12:08:28;4.57;;;1.77;;
23159;SDS011;11748;50.844;4.396;2023-04-03T12:13:40;4.68;;;2.05;;
23159;SDS011;11748;50.844;4.396;2023-04-03T12:16:19;3.05;;;1.60;;
23159;SDS011;11748;50.844;4.396;2023-04-03T12:24:25;2.78;;;1.42;;
23159;SDS011;11748;50.844;4.396;2023-04-03T12:32:35;4.65;;;1.40;;
23159;SDS011;11748;50.844;4.396;2023-04-03T12:43:47;1.55;;;1.17;;
23159;SDS011;11748;50.844;4.396;2023-04-03T12:46:36;6.57;;;1.45;;
23159;SDS011;11748;50.844;4.396;2023-04-03T12:49:12;3.97;;;1.67;;
23159;SDS011;11748;50.844;4.396;2023-04-03T12:52:00;3.60;;;1.60;;
23159;SDS011;11748;50.844;4.396;2023-04-03T12:54:37;3.10;;;1.50;;
23159;SDS011;11748;50.844;4.396;2023-04-03T12:57:17;2.58;;;1.50;;
23159;SDS011;11748;50.844;4.396;2023-04-03T12:59:52;3.85;;;1.30;;
23159;SDS011;11748;50.844;4.396;2023-04-03T13:02:28;4.00;;;1.40;;
23159;SDS011;11748;50.844;4.396;2023-04-03T13:04:56;4.10;;;1.70;;
23159;SDS011;11748;50.844;4.396;2023-04-03T13:07:31;7.05;;;1.42;;
23159;SDS011;11748;50.844;4.396;2023-04-03T13:10:01;2.15;;;1.13;;
23159;SDS011;11748;50.844;4.396;2023-04-03T13:17:43;3.58;;;1.40;;
23159;SDS011;11748;50.844;4.396;2023-04-03T13:20:13;3.17;;;1.40;;
23159;SDS011;11748;50.844;4.396;2023-04-03T13:23:05;4.10;;;1.52;;
23159;SDS011;11748;50.844;4.396;2023-04-03T13:25:34;6.75;;;1.92;;
23159;SDS011;11748;50.844;4.396;2023-04-03T13:28:04;8.23;;;3.58;;
23159;SDS011;11748;50.844;4.396;2023-04-03T13:30:33;2.80;;;1.77;;
23159;SDS011;11748;50.844;4.396;2023-04-03T13:33:02;5.55;;;2.63;;
23159;SDS011;11748;50.844;4.396;2023-04-03T13:35:35;4.90;;;1.90;;
23159;SDS011;11748;50.844;4.396;2023-04-03T13:38:03;4.45;;;1.90;;
23159;SDS011;11748;50.844;4.396;2023-04-03T13:40:48;4.15;;;1.38;;
23159;SDS011;11748;50.844;4.396;2023-04-03T13:43:21;6.07;;;1.63;;
23159;SDS011;11748;50.844;4.396;2023-04-03T13:48:35;3.08;;;1.45;;
23159;SDS011;11748;50.844;4.396;2023-04-03T13:53:48;3.67;;;1.63;;
23159;SDS011;11748;50.844;4.396;2023-04-03T13:56:23;3.83;;;1.70;;
23159;SDS011;11748;50.844;4.396;2023-04-03T13:58:55;3.05;;;1.63;;
23159;SDS011;11748;50.844;4.396;2023-04-03T14:01:23;2.58;;;1.63;;
23159;SDS011;11748;50.844;4.396;2023-04-03T14:06:21;2.55;;;1.40;;
23159;SDS011;11748;50.844;4.396;2023-04-03T14:08:47;3.15;;;1.48;;
23159;SDS011;11748;50.844;4.396;2023-04-03T14:13:43;3.55;;;1.60;;
23159;SDS011;11748;50.844;4.396;2023-04-03T14:16:12;3.22;;;1.45;;
23159;SDS011;11748;50.844;4.396;2023-04-03T14:18:43;3.05;;;1.73;;
23159;SDS011;11748;50.844;4.396;2023-04-03T14:21:11;3.13;;;1.33;;
23159;SDS011;11748;50.844;4.396;2023-04-03T14:23:38;3.50;;;1.60;;
23159;SDS011;11748;50.844;4.396;2023-04-03T14:26:05;3.13;;;1.50;;
23159;SDS011;11748;50.844;4.396;2023-04-03T14:28:36;3.97;;;1.80;;
23159;SDS011;11748;50.844;4.396;2023-04-03T14:31:02;4.55;;;1.55;;
23159;SDS011;11748;50.844;4.396;2023-04-03T14:33:28;4.22;;;1.40;;
23159;SDS011;11748;50.844;4.396;2023-04-03T14:35:56;2.35;;;1.23;;
23159;SDS011;11748;50.844;4.396;2023-04-03T14:40:50;1.92;;;1.25;;
23159;SDS011;11748;50.844;4.396;2023-04-03T14:43:17;4.10;;;1.52;;
23159;SDS011;11748;50.844;4.396;2023-04-03T14:45:43;1.88;;;1.13;;
23159;SDS011;11748;50.844;4.396;2023-04-03T14:48:11;3.13;;;1.38;;
23159;SDS011;11748;50.844;4.396;2023-04-03T14:50:43;2.93;;;1.53;;
23159;SDS011;11748;50.844;4.396;2023-04-03T14:53:10;2.72;;;1.30;;
23159;SDS011;11748;50.844;4.396;2023-04-03T14:55:37;1.90;;;1.45;;
23159;SDS011;11748;50.844;4.396;2023-04-03T14:58:03;4.47;;;1.20;;
23159;SDS011;11748;50.844;4.396;2023-04-03T15:00:29;4.10;;;1.50;;
23159;SDS011;11748;50.844;4.396;2023-04-03T15:02:55;2.15;;;1.30;;
23159;SDS011;11748;50.844;4.396;2023-04-03T15:05:20;6.65;;;1.20;;
23159;SDS011;11748;50.844;4.396;2023-04-03T15:07:47;1.60;;;1.20;;
23159;SDS011;11748;50.844;4.396;2023-04-03T15:10:17;2.15;;;1.30;;
23159;SDS011;11748;50.844;4.396;2023-04-03T15:12:45;3.47;;;1.27;;
23159;SDS011;11748;50.844;4.396;2023-04-03T15:15:12;4.07;;;1.30;;
23159;SDS011;11748;50.844;4.396;2023-04-03T15:17:38;4.05;;;1.10;;
23159;SDS011;11748;50.844;4.396;2023-04-03T15:20:14;2.50;;;1.25;;
23159;SDS011;11748;50.844;4.396;2023-04-03T15:22:45;3.30;;;1.25;;
23159;SDS011;11748;50.844;4.396;2023-04-03T15:25:11;3.17;;;1.33;;
23159;SDS011;11748;50.844;4.396;2023-04-03T15:27:37;1.85;;;1.45;;
23159;SDS011;11748;50.844;4.396;2023-04-03T15:30:05;6.25;;;1.30;;
23159;SDS011;11748;50.844;4.396;2023-04-03T15:32:33;3.22;;;1.10;;
23159;SDS011;11748;50.844;4.396;2023-04-03T15:35:00;3.15;;;1.40;;
23159;SDS011;11748;50.844;4.396;2023-04-03T15:37:26;1.70;;;1.20;;
23159;SDS011;11748;50.844;4.396;2023-04-03T15:39:51;2.83;;;1.65;;
23159;SDS011;11748;50.844;4.396;2023-04-03T15:42:17;3.50;;;1.33;;
23159;SDS011;11748;50.844;4.396;2023-04-03T15:44:43;2.95;;;1.40;;
23159;SDS011;11748;50.844;4.396;2023-04-03T15:47:08;4.13;;;1.35;;
23159;SDS011;11748;50.844;4.396;2023-04-03T15:49:35;3.72;;;1.92;;
23159;SDS011;11748;50.844;4.396;2023-04-03T15:52:00;2.90;;;1.70;;
23159;SDS011;11748;50.844;4.396;2023-04-03T15:54:26;4.35;;;1.73;;
23159;SDS011;11748;50.844;4.396;2023-04-03T15:56:54;3.25;;;1.30;;
23159;SDS011;11748;50.844;4.396;2023-04-03T15:59:20;3.70;;;1.65;;
23159;SDS011;11748;50.844;4.396;2023-04-03T16:01:46;4.88;;;1.40;;
23159;SDS011;11748;50.844;4.396;2023-04-03T16:04:13;3.25;;;1.88;;
23159;SDS011;11748;50.844;4.396;2023-04-03T16:06:39;4.22;;;1.70;;
23159;SDS011;11748;50.844;4.396;2023-04-03T16:09:06;3.75;;;2.40;;
23159;SDS011;11748;50.844;4.396;2023-04-03T16:11:32;4.20;;;2.05;;
23159;SDS011;11748;50.844;4.396;2023-04-03T16:14:00;3.83;;;2.13;;
23159;SDS011;11748;50.844;4.396;2023-04-03T16:16:25;4.15;;;2.00;;
23159;SDS011;11748;50.844;4.396;2023-04-03T16:18:53;6.55;;;1.92;;
23159;SDS011;11748;50.844;4.396;2023-04-03T16:21:20;4.65;;;1.73;;
23159;SDS011;11748;50.844;4.396;2023-04-03T16:23:46;3.28;;;2.10;;
23159;SDS011;11748;50.844;4.396;2023-04-03T16:26:12;4.07;;;2.15;;
23159;SDS011;11748;50.844;4.396;2023-04-03T16:28:47;5.05;;;2.17;;
23159;SDS011;11748;50.844;4.396;2023-04-03T16:31:13;3.00;;;1.75;;
23159;SDS011;11748;50.844;4.396;2023-04-03T16:33:41;2.20;;;1.42;;
23159;SDS011;11748;50.844;4.396;2023-04-03T16:36:07;3.65;;;2.03;;
23159;SDS011;11748;50.844;4.396;2023-04-03T16:38:42;5.50;;;1.88;;
23159;SDS011;11748;50.844;4.396;2023-04-03T16:41:11;4.43;;;2.17;;
23159;SDS011;11748;50.844;4.396;2023-04-03T16:43:37;6.15;;;4.05;;
23159;SDS011;11748;50.844;4.396;2023-04-03T16:46:05;4.82;;;2.60;;
23159;SDS011;11748;50.844;4.396;2023-04-03T16:48:31;5.65;;;1.95;;
23159;SDS011;11748;50.844;4.396;2023-04-03T16:51:00;5.00;;;2.28;;
23159;SDS011;11748;50.844;4.396;2023-04-03T16:53:26;7.13;;;2.15;;
23159;SDS011;11748;50.844;4.396;2023-04-03T16:55:52;5.32;;;2.17;;
23159;SDS011;11748;50.844;4.396;2023-04-03T16:58:19;4.63;;;2.17;;
23159;SDS011;11748;50.844;4.396;2023-04-03T17:00:44;6.07;;;2.05;;
23159;SDS011;11748;50.844;4.396;2023-04-03T17:03:13;5.15;;;2.05;;